sensor_id;sensor_type;location;lat;lon;timestamp;P1;durP1;ratioP1;P2;durP2;ratioP2
40373;SDS011;26079;45.958;12.492;2022-08-19T00:01:09;10.98;;;4.00;;
40373;SDS011;26079;45.958;12.492;2022-08-19T00:03:35;10.02;;;3.25;;
40373;SDS011;26079;45.958;12.492;2022-08-19T00:06:01;5.60;;;2.58;;
40373;SDS011;26079;45.958;12.492;2022-08-19T00:08:27;10.77;;;3.22;;
40373;SDS011;26079;45.958;12.492;2022-08-19T00:10:56;13.18;;;3.30;;
40373;SDS011;26079;45.958;12.492;2022-08-19T00:13:22;9.05;;;3.63;;
40373;SDS011;26079;45.958;12.492;2022-08-19T00:15:48;7.32;;;2.53;;
40373;SDS011;26079;45.958;12.492;2022-08-19T00:18:14;8.30;;;2.92;;
40373;SDS011;26079;45.958;12.492;2022-08-19T00:20:39;12.75;;;3.63;;
40373;SDS011;26079;45.958;12.492;2022-08-19T00:23:05;6.00;;;3.13;;
40373;SDS011;26079;45.958;12.492;2022-08-19T00:25:31;6.03;;;2.40;;
40373;SDS011;26079;45.958;12.492;2022-08-19T00:28:01;13.43;;;3.63;;
40373;SDS011;26079;45.958;12.492;2022-08-19T00:30:28;12.73;;;5.28;;
40373;SDS011;26079;45.958;12.492;2022-08-19T00:32:53;6.50;;;2.95;;
40373;SDS011;26079;45.958;12.492;2022-08-19T00:35:20;7.45;;;2.42;;
40373;SDS011;26079;45.958;12.492;2022-08-19T00:37:47;9.00;;;3.17;;
40373;SDS011;26079;45.958;12.492;2022-08-19T00:40:14;8.77;;;2.67;;
40373;SDS011;26079;45.958;12.492;2022-08-19T00:42:41;16.58;;;3.40;;
40373;SDS011;26079;45.958;12.492;2022-08-19T00:45:12;13.23;;;3.15;;
40373;SDS011;26079;45.958;12.492;2022-08-19T00:47:40;8.57;;;3.55;;
40373;SDS011;26079;45.958;12.492;2022-08-19T00:50:06;9.63;;;3.65;;
40373;SDS011;26079;45.958;12.492;2022-08-19T00:52:35;12.52;;;4.22;;
40373;SDS011;26079;45.958;12.492;2022-08-19T00:55:05;6.50;;;3.50;;
40373;SDS011;26079;45.958;12.492;2022-08-19T00:57:36;14.38;;;4.20;;
40373;SDS011;26079;45.958;12.492;2022-08-19T01:00:10;21.42;;;4.10;;
40373;SDS011;26079;45.958;12.492;2022-08-19T01:02:41;12.50;;;3.05;;
40373;SDS011;26079;45.958;12.492;2022-08-19T01:05:11;11.45;;;4.28;;
40373;SDS011;26079;45.958;12.492;2022-08-19T01:07:41;20.05;;;4.20;;
40373;SDS011;26079;45.958;12.492;2022-08-19T01:10:10;6.90;;;3.80;;
40373;SDS011;26079;45.958;12.492;2022-08-19T01:12:38;13.55;;;4.45;;
40373;SDS011;26079;45.958;12.492;2022-08-19T01:15:08;12.18;;;3.38;;
40373;SDS011;26079;45.958;12.492;2022-08-19T01:17:36;8.85;;;3.80;;
40373;SDS011;26079;45.958;12.492;2022-08-19T01:20:04;10.20;;;4.57;;
40373;SDS011;26079;45.958;12.492;2022-08-19T01:22:34;12.25;;;4.30;;
40373;SDS011;26079;45.958;12.492;2022-08-19T01:25:07;11.55;;;4.45;;
40373;SDS011;26079;45.958;12.492;2022-08-19T01:27:40;12.95;;;3.28;;
40373;SDS011;26079;45.958;12.492;2022-08-19T01:30:08;17.52;;;4.35;;
40373;SDS011;26079;45.958;12.492;2022-08-19T01:32:39;8.85;;;3.72;;
40373;SDS011;26079;45.958;12.492;2022-08-19T01:35:05;12.05;;;3.88;;
40373;SDS011;26079;45.958;12.492;2022-08-19T01:37:41;10.80;;;3.83;;
40373;SDS011;26079;45.958;12.492;2022-08-19T01:40:16;15.27;;;4.15;;
40373;SDS011;26079;45.958;12.492;2022-08-19T01:42:45;9.85;;;3.45;;
40373;SDS011;26079;45.958;12.492;2022-08-19T01:45:15;8.43;;;4.43;;
40373;SDS011;26079;45.958;12.492;2022-08-19T01:47:41;9.63;;;3.78;;
40373;SDS011;26079;45.958;12.492;2022-08-19T01:50:08;13.88;;;4.32;;
40373;SDS011;26079;45.958;12.492;2022-08-19T01:52:35;8.40;;;3.22;;
40373;SDS011;26079;45.958;12.492;2022-08-19T01:55:03;12.05;;;4.32;;
40373;SDS011;26079;45.958;12.492;2022-08-19T01:57:30;7.15;;;2.90;;
40373;SDS011;26079;45.958;12.492;2022-08-19T01:59:55;13.23;;;3.67;;
40373;SDS011;26079;45.958;12.492;2022-08-19T02:02:21;16.90;;;4.72;;
40373;SDS011;26079;45.958;12.492;2022-08-19T02:04:48;12.00;;;3.75;;
40373;SDS011;26079;45.958;12.492;2022-08-19T02:07:13;15.25;;;3.53;;
40373;SDS011;26079;45.958;12.492;2022-08-19T02:09:39;5.32;;;2.97;;
40373;SDS011;26079;45.958;12.492;2022-08-19T02:12:05;8.00;;;3.83;;
40373;SDS011;26079;45.958;12.492;2022-08-19T02:14:34;6.90;;;3.28;;
40373;SDS011;26079;45.958;12.492;2022-08-19T02:17:00;11.30;;;4.10;;
40373;SDS011;26079;45.958;12.492;2022-08-19T02:19:26;13.80;;;4.05;;
40373;SDS011;26079;45.958;12.492;2022-08-19T02:21:52;11.35;;;4.47;;
40373;SDS011;26079;45.958;12.492;2022-08-19T02:24:18;5.38;;;2.65;;
40373;SDS011;26079;45.958;12.492;2022-08-19T02:26:44;8.93;;;3.65;;
40373;SDS011;26079;45.958;12.492;2022-08-19T02:29:09;7.63;;;3.03;;
40373;SDS011;26079;45.958;12.492;2022-08-19T02:31:35;14.75;;;3.85;;
40373;SDS011;26079;45.958;12.492;2022-08-19T02:34:01;7.28;;;3.33;;
40373;SDS011;26079;45.958;12.492;2022-08-19T02:36:27;19.27;;;3.55;;
40373;SDS011;26079;45.958;12.492;2022-08-19T02:38:53;11.57;;;3.47;;
40373;SDS011;26079;45.958;12.492;2022-08-19T02:41:21;6.18;;;2.45;;
40373;SDS011;26079;45.958;12.492;2022-08-19T02:43:48;10.55;;;2.88;;
40373;SDS011;26079;45.958;12.492;2022-08-19T02:46:18;8.02;;;2.63;;
40373;SDS011;26079;45.958;12.492;2022-08-19T02:48:49;9.88;;;2.67;;
40373;SDS011;26079;45.958;12.492;2022-08-19T02:51:17;4.25;;;1.40;;
40373;SDS011;26079;45.958;12.492;2022-08-19T02:53:44;8.93;;;2.85;;
40373;SDS011;26079;45.958;12.492;2022-08-19T02:56:10;10.80;;;2.10;;
40373;SDS011;26079;45.958;12.492;2022-08-19T02:58:37;7.95;;;2.78;;
40373;SDS011;26079;45.958;12.492;2022-08-19T03:01:02;8.93;;;2.50;;
40373;SDS011;26079;45.958;12.492;2022-08-19T03:03:28;5.35;;;1.55;;
40373;SDS011;26079;45.958;12.492;2022-08-19T03:06:11;12.98;;;2.03;;
40373;SDS011;26079;45.958;12.492;2022-08-19T03:08:38;7.30;;;1.67;;
40373;SDS011;26079;45.958;12.492;2022-08-19T03:11:05;5.55;;;2.03;;
40373;SDS011;26079;45.958;12.492;2022-08-19T03:13:31;6.20;;;1.75;;
40373;SDS011;26079;45.958;12.492;2022-08-19T03:15:57;8.40;;;1.98;;
40373;SDS011;26079;45.958;12.492;2022-08-19T03:18:23;13.98;;;2.42;;
40373;SDS011;26079;45.958;12.492;2022-08-19T03:20:49;6.07;;;2.15;;
40373;SDS011;26079;45.958;12.492;2022-08-19T03:23:17;5.45;;;1.83;;
40373;SDS011;26079;45.958;12.492;2022-08-19T03:25:45;7.10;;;1.77;;
40373;SDS011;26079;45.958;12.492;2022-08-19T03:28:13;8.63;;;1.77;;
40373;SDS011;26079;45.958;12.492;2022-08-19T03:30:41;4.30;;;1.42;;
40373;SDS011;26079;45.958;12.492;2022-08-19T03:33:09;3.65;;;1.20;;
40373;SDS011;26079;45.958;12.492;2022-08-19T03:36:13;6.18;;;1.77;;
40373;SDS011;26079;45.958;12.492;2022-08-19T03:38:43;2.30;;;0.90;;
40373;SDS011;26079;45.958;12.492;2022-08-19T03:41:13;5.43;;;1.52;;
40373;SDS011;26079;45.958;12.492;2022-08-19T03:43:41;1.42;;;1.02;;
40373;SDS011;26079;45.958;12.492;2022-08-19T03:46:10;11.00;;;2.22;;
40373;SDS011;26079;45.958;12.492;2022-08-19T03:48:37;4.40;;;1.60;;
40373;SDS011;26079;45.958;12.492;2022-08-19T03:53:32;3.25;;;1.05;;
40373;SDS011;26079;45.958;12.492;2022-08-19T03:55:59;3.53;;;0.65;;
40373;SDS011;26079;45.958;12.492;2022-08-19T03:58:26;3.35;;;1.33;;
40373;SDS011;26079;45.958;12.492;2022-08-19T04:00:54;11.80;;;1.63;;
40373;SDS011;26079;45.958;12.492;2022-08-19T04:03:21;4.22;;;1.35;;
40373;SDS011;26079;45.958;12.492;2022-08-19T04:05:48;7.45;;;1.52;;
40373;SDS011;26079;45.958;12.492;2022-08-19T04:08:14;6.00;;;1.67;;
40373;SDS011;26079;45.958;12.492;2022-08-19T04:10:45;3.75;;;1.08;;
40373;SDS011;26079;45.958;12.492;2022-08-19T04:13:12;4.25;;;1.17;;
40373;SDS011;26079;45.958;12.492;2022-08-19T04:15:40;7.40;;;1.90;;
40373;SDS011;26079;45.958;12.492;2022-08-19T04:18:08;2.42;;;1.10;;
40373;SDS011;26079;45.958;12.492;2022-08-19T04:20:45;6.03;;;1.60;;
40373;SDS011;26079;45.958;12.492;2022-08-19T04:23:13;6.88;;;1.52;;
40373;SDS011;26079;45.958;12.492;2022-08-19T04:25:39;4.13;;;0.98;;
40373;SDS011;26079;45.958;12.492;2022-08-19T04:28:07;6.50;;;1.23;;
40373;SDS011;26079;45.958;12.492;2022-08-19T04:30:38;3.25;;;1.13;;
40373;SDS011;26079;45.958;12.492;2022-08-19T04:33:05;2.33;;;1.35;;
40373;SDS011;26079;45.958;12.492;2022-08-19T04:35:35;3.05;;;1.42;;
40373;SDS011;26079;45.958;12.492;2022-08-19T04:38:02;6.00;;;1.42;;
40373;SDS011;26079;45.958;12.492;2022-08-19T04:40:29;8.43;;;1.02;;
40373;SDS011;26079;45.958;12.492;2022-08-19T04:43:13;7.47;;;1.55;;
40373;SDS011;26079;45.958;12.492;2022-08-19T04:45:40;8.35;;;1.20;;
40373;SDS011;26079;45.958;12.492;2022-08-19T04:48:08;4.07;;;0.60;;
40373;SDS011;26079;45.958;12.492;2022-08-19T04:50:35;5.30;;;0.70;;
40373;SDS011;26079;45.958;12.492;2022-08-19T04:53:01;6.38;;;2.33;;
40373;SDS011;26079;45.958;12.492;2022-08-19T04:55:26;3.65;;;0.85;;
40373;SDS011;26079;45.958;12.492;2022-08-19T04:57:52;4.50;;;1.15;;
40373;SDS011;26079;45.958;12.492;2022-08-19T05:00:19;7.88;;;1.30;;
40373;SDS011;26079;45.958;12.492;2022-08-19T05:02:45;2.47;;;1.27;;
40373;SDS011;26079;45.958;12.492;2022-08-19T05:05:10;6.90;;;1.83;;
40373;SDS011;26079;45.958;12.492;2022-08-19T05:07:37;1.45;;;1.08;;
40373;SDS011;26079;45.958;12.492;2022-08-19T05:10:04;4.70;;;1.40;;
40373;SDS011;26079;45.958;12.492;2022-08-19T05:12:30;3.72;;;0.90;;
40373;SDS011;26079;45.958;12.492;2022-08-19T05:14:57;6.53;;;1.02;;
40373;SDS011;26079;45.958;12.492;2022-08-19T05:17:23;3.80;;;1.02;;
40373;SDS011;26079;45.958;12.492;2022-08-19T05:19:51;2.05;;;0.82;;
40373;SDS011;26079;45.958;12.492;2022-08-19T05:22:46;3.40;;;0.95;;
40373;SDS011;26079;45.958;12.492;2022-08-19T05:25:14;1.65;;;0.65;;
40373;SDS011;26079;45.958;12.492;2022-08-19T05:27:43;2.50;;;0.70;;
40373;SDS011;26079;45.958;12.492;2022-08-19T05:30:10;2.53;;;0.80;;
40373;SDS011;26079;45.958;12.492;2022-08-19T05:32:36;2.53;;;0.88;;
40373;SDS011;26079;45.958;12.492;2022-08-19T05:35:03;3.72;;;0.57;;
40373;SDS011;26079;45.958;12.492;2022-08-19T05:37:29;5.40;;;1.73;;
40373;SDS011;26079;45.958;12.492;2022-08-19T05:39:55;5.55;;;1.00;;
40373;SDS011;26079;45.958;12.492;2022-08-19T05:42:21;2.22;;;0.73;;
40373;SDS011;26079;45.958;12.492;2022-08-19T05:44:47;3.17;;;0.82;;
40373;SDS011;26079;45.958;12.492;2022-08-19T05:47:14;1.90;;;1.27;;
40373;SDS011;26079;45.958;12.492;2022-08-19T05:49:41;1.65;;;0.70;;
40373;SDS011;26079;45.958;12.492;2022-08-19T05:52:08;3.17;;;1.00;;
40373;SDS011;26079;45.958;12.492;2022-08-19T05:54:37;3.80;;;1.00;;
40373;SDS011;26079;45.958;12.492;2022-08-19T05:57:05;4.88;;;1.30;;
40373;SDS011;26079;45.958;12.492;2022-08-19T05:59:31;3.92;;;0.95;;
40373;SDS011;26079;45.958;12.492;2022-08-19T06:02:00;6.47;;;1.45;;
40373;SDS011;26079;45.958;12.492;2022-08-19T06:04:26;2.03;;;1.10;;
40373;SDS011;26079;45.958;12.492;2022-08-19T06:06:52;7.57;;;1.30;;
40373;SDS011;26079;45.958;12.492;2022-08-19T06:09:19;5.15;;;1.27;;
40373;SDS011;26079;45.958;12.492;2022-08-19T06:11:50;9.23;;;1.77;;
40373;SDS011;26079;45.958;12.492;2022-08-19T06:14:21;3.03;;;0.85;;
40373;SDS011;26079;45.958;12.492;2022-08-19T06:16:50;3.17;;;0.95;;
40373;SDS011;26079;45.958;12.492;2022-08-19T06:19:17;5.22;;;0.93;;
40373;SDS011;26079;45.958;12.492;2022-08-19T06:21:45;2.97;;;1.10;;
40373;SDS011;26079;45.958;12.492;2022-08-19T06:24:14;5.20;;;1.20;;
40373;SDS011;26079;45.958;12.492;2022-08-19T06:26:44;2.25;;;1.40;;
40373;SDS011;26079;45.958;12.492;2022-08-19T06:29:13;3.38;;;0.88;;
40373;SDS011;26079;45.958;12.492;2022-08-19T06:31:45;2.88;;;0.73;;
40373;SDS011;26079;45.958;12.492;2022-08-19T06:34:14;4.00;;;0.73;;
40373;SDS011;26079;45.958;12.492;2022-08-19T06:36:42;2.53;;;0.60;;
40373;SDS011;26079;45.958;12.492;2022-08-19T06:39:13;1.02;;;0.57;;
40373;SDS011;26079;45.958;12.492;2022-08-19T06:41:42;1.42;;;0.47;;
40373;SDS011;26079;45.958;12.492;2022-08-19T06:44:10;3.38;;;1.02;;
40373;SDS011;26079;45.958;12.492;2022-08-19T06:46:37;5.10;;;0.90;;
40373;SDS011;26079;45.958;12.492;2022-08-19T06:49:04;1.65;;;0.57;;
40373;SDS011;26079;45.958;12.492;2022-08-19T06:51:31;4.50;;;0.80;;
40373;SDS011;26079;45.958;12.492;2022-08-19T06:53:57;9.18;;;0.98;;
40373;SDS011;26079;45.958;12.492;2022-08-19T06:56:25;2.92;;;0.77;;
40373;SDS011;26079;45.958;12.492;2022-08-19T06:59:03;9.65;;;1.23;;
40373;SDS011;26079;45.958;12.492;2022-08-19T07:01:30;5.35;;;0.68;;
40373;SDS011;26079;45.958;12.492;2022-08-19T07:03:59;3.63;;;1.13;;
40373;SDS011;26079;45.958;12.492;2022-08-19T07:06:26;1.70;;;0.80;;
40373;SDS011;26079;45.958;12.492;2022-08-19T07:08:52;1.98;;;0.68;;
40373;SDS011;26079;45.958;12.492;2022-08-19T07:11:18;4.32;;;1.05;;
40373;SDS011;26079;45.958;12.492;2022-08-19T07:13:44;4.88;;;0.68;;
40373;SDS011;26079;45.958;12.492;2022-08-19T07:16:18;2.38;;;0.60;;
40373;SDS011;26079;45.958;12.492;2022-08-19T07:18:47;0.80;;;0.50;;
40373;SDS011;26079;45.958;12.492;2022-08-19T07:21:15;3.65;;;0.73;;
40373;SDS011;26079;45.958;12.492;2022-08-19T07:26:24;2.85;;;0.95;;
40373;SDS011;26079;45.958;12.492;2022-08-19T07:28:54;4.32;;;0.82;;
40373;SDS011;26079;45.958;12.492;2022-08-19T07:31:21;1.73;;;0.60;;
40373;SDS011;26079;45.958;12.492;2022-08-19T07:33:49;4.15;;;1.08;;
40373;SDS011;26079;45.958;12.492;2022-08-19T07:36:17;3.45;;;0.77;;
40373;SDS011;26079;45.958;12.492;2022-08-19T07:38:46;1.70;;;0.70;;
40373;SDS011;26079;45.958;12.492;2022-08-19T07:41:15;3.90;;;1.65;;
40373;SDS011;26079;45.958;12.492;2022-08-19T07:43:43;1.58;;;0.60;;
40373;SDS011;26079;45.958;12.492;2022-08-19T07:46:11;5.07;;;1.33;;
40373;SDS011;26079;45.958;12.492;2022-08-19T07:48:38;4.05;;;1.10;;
40373;SDS011;26079;45.958;12.492;2022-08-19T07:51:07;3.92;;;1.00;;
40373;SDS011;26079;45.958;12.492;2022-08-19T07:53:35;1.48;;;0.70;;
40373;SDS011;26079;45.958;12.492;2022-08-19T07:56:02;3.45;;;1.30;;
40373;SDS011;26079;45.958;12.492;2022-08-19T07:58:33;1.77;;;0.55;;
40373;SDS011;26079;45.958;12.492;2022-08-19T08:01:00;3.85;;;1.17;;
40373;SDS011;26079;45.958;12.492;2022-08-19T08:03:27;4.03;;;1.27;;
40373;SDS011;26079;45.958;12.492;2022-08-19T08:06:13;1.05;;;0.57;;
40373;SDS011;26079;45.958;12.492;2022-08-19T08:08:58;4.47;;;1.70;;
40373;SDS011;26079;45.958;12.492;2022-08-19T08:11:46;4.47;;;1.23;;
40373;SDS011;26079;45.958;12.492;2022-08-19T08:14:31;5.03;;;1.00;;
40373;SDS011;26079;45.958;12.492;2022-08-19T08:17:03;9.77;;;1.45;;
40373;SDS011;26079;45.958;12.492;2022-08-19T08:19:30;3.15;;;1.38;;
40373;SDS011;26079;45.958;12.492;2022-08-19T08:21:58;4.40;;;1.23;;
40373;SDS011;26079;45.958;12.492;2022-08-19T08:24:25;5.65;;;1.63;;
40373;SDS011;26079;45.958;12.492;2022-08-19T08:26:57;2.45;;;0.57;;
40373;SDS011;26079;45.958;12.492;2022-08-19T08:29:25;3.90;;;0.77;;
40373;SDS011;26079;45.958;12.492;2022-08-19T08:31:54;4.43;;;1.20;;
40373;SDS011;26079;45.958;12.492;2022-08-19T08:34:21;2.70;;;0.75;;
40373;SDS011;26079;45.958;12.492;2022-08-19T08:36:47;4.20;;;1.40;;
40373;SDS011;26079;45.958;12.492;2022-08-19T08:39:19;1.98;;;0.80;;
40373;SDS011;26079;45.958;12.492;2022-08-19T08:41:50;0.98;;;0.80;;
40373;SDS011;26079;45.958;12.492;2022-08-19T08:44:20;7.13;;;1.58;;
40373;SDS011;26079;45.958;12.492;2022-08-19T08:47:13;3.70;;;0.85;;
40373;SDS011;26079;45.958;12.492;2022-08-19T08:54:54;6.20;;;0.60;;
40373;SDS011;26079;45.958;12.492;2022-08-19T09:00:05;4.13;;;0.88;;
40373;SDS011;26079;45.958;12.492;2022-08-19T09:02:38;3.88;;;1.63;;
40373;SDS011;26079;45.958;12.492;2022-08-19T09:05:03;2.80;;;1.20;;
40373;SDS011;26079;45.958;12.492;2022-08-19T09:10:39;3.90;;;1.50;;
40373;SDS011;26079;45.958;12.492;2022-08-19T09:15:56;5.93;;;0.93;;
40373;SDS011;26079;45.958;12.492;2022-08-19T09:18:46;3.67;;;0.77;;
40373;SDS011;26079;45.958;12.492;2022-08-19T09:21:16;1.00;;;0.30;;
40373;SDS011;26079;45.958;12.492;2022-08-19T09:23:45;4.03;;;0.60;;
40373;SDS011;26079;45.958;12.492;2022-08-19T09:26:15;3.17;;;0.80;;
40373;SDS011;26079;45.958;12.492;2022-08-19T09:28:43;5.03;;;0.82;;
40373;SDS011;26079;45.958;12.492;2022-08-19T09:31:10;1.98;;;1.05;;
40373;SDS011;26079;45.958;12.492;2022-08-19T09:33:37;0.85;;;0.40;;
40373;SDS011;26079;45.958;12.492;2022-08-19T09:36:04;3.00;;;0.55;;
40373;SDS011;26079;45.958;12.492;2022-08-19T09:38:35;1.83;;;0.40;;
40373;SDS011;26079;45.958;12.492;2022-08-19T09:41:05;1.88;;;0.70;;
40373;SDS011;26079;45.958;12.492;2022-08-19T09:43:32;4.00;;;0.93;;
40373;SDS011;26079;45.958;12.492;2022-08-19T09:46:02;1.67;;;0.75;;
40373;SDS011;26079;45.958;12.492;2022-08-19T09:48:30;3.80;;;1.25;;
40373;SDS011;26079;45.958;12.492;2022-08-19T09:51:21;1.10;;;0.57;;
40373;SDS011;26079;45.958;12.492;2022-08-19T09:53:49;2.03;;;0.70;;
40373;SDS011;26079;45.958;12.492;2022-08-19T09:56:16;1.88;;;0.68;;
40373;SDS011;26079;45.958;12.492;2022-08-19T09:58:43;3.83;;;0.80;;
40373;SDS011;26079;45.958;12.492;2022-08-19T10:01:14;4.78;;;1.45;;
40373;SDS011;26079;45.958;12.492;2022-08-19T10:03:52;1.30;;;0.45;;
40373;SDS011;26079;45.958;12.492;2022-08-19T10:06:20;5.13;;;1.05;;
40373;SDS011;26079;45.958;12.492;2022-08-19T10:08:48;3.28;;;0.90;;
40373;SDS011;26079;45.958;12.492;2022-08-19T10:11:14;3.00;;;0.77;;
40373;SDS011;26079;45.958;12.492;2022-08-19T10:13:41;7.38;;;1.65;;
40373;SDS011;26079;45.958;12.492;2022-08-19T10:16:09;1.85;;;0.57;;
40373;SDS011;26079;45.958;12.492;2022-08-19T10:18:38;1.85;;;0.70;;
40373;SDS011;26079;45.958;12.492;2022-08-19T10:21:11;4.03;;;0.55;;
40373;SDS011;26079;45.958;12.492;2022-08-19T10:23:40;3.58;;;0.90;;
40373;SDS011;26079;45.958;12.492;2022-08-19T10:26:11;6.35;;;0.95;;
40373;SDS011;26079;45.958;12.492;2022-08-19T10:28:38;3.53;;;0.90;;
40373;SDS011;26079;45.958;12.492;2022-08-19T10:31:08;3.17;;;1.00;;
40373;SDS011;26079;45.958;12.492;2022-08-19T10:33:36;2.92;;;0.85;;
40373;SDS011;26079;45.958;12.492;2022-08-19T10:36:05;5.60;;;0.95;;
40373;SDS011;26079;45.958;12.492;2022-08-19T10:38:42;7.10;;;1.10;;
40373;SDS011;26079;45.958;12.492;2022-08-19T10:41:11;3.05;;;0.70;;
40373;SDS011;26079;45.958;12.492;2022-08-19T10:43:41;2.95;;;1.15;;
40373;SDS011;26079;45.958;12.492;2022-08-19T10:46:10;1.40;;;0.60;;
40373;SDS011;26079;45.958;12.492;2022-08-19T10:48:38;2.25;;;0.50;;
40373;SDS011;26079;45.958;12.492;2022-08-19T10:51:05;2.85;;;0.60;;
40373;SDS011;26079;45.958;12.492;2022-08-19T10:53:50;2.03;;;1.00;;
40373;SDS011;26079;45.958;12.492;2022-08-19T10:56:16;2.35;;;0.80;;
40373;SDS011;26079;45.958;12.492;2022-08-19T10:59:01;11.30;;;1.00;;
40373;SDS011;26079;45.958;12.492;2022-08-19T11:01:28;4.07;;;0.90;;
40373;SDS011;26079;45.958;12.492;2022-08-19T11:03:56;2.33;;;0.98;;
40373;SDS011;26079;45.958;12.492;2022-08-19T11:06:25;4.00;;;0.90;;
40373;SDS011;26079;45.958;12.492;2022-08-19T11:08:51;8.93;;;1.05;;
40373;SDS011;26079;45.958;12.492;2022-08-19T11:11:20;5.10;;;1.08;;
40373;SDS011;26079;45.958;12.492;2022-08-19T11:13:47;3.50;;;0.85;;
40373;SDS011;26079;45.958;12.492;2022-08-19T11:16:16;2.47;;;0.57;;
40373;SDS011;26079;45.958;12.492;2022-08-19T11:18:46;5.22;;;1.17;;
40373;SDS011;26079;45.958;12.492;2022-08-19T11:21:15;2.45;;;0.57;;
40373;SDS011;26079;45.958;12.492;2022-08-19T11:23:47;7.05;;;1.02;;
40373;SDS011;26079;45.958;12.492;2022-08-19T11:26:16;3.55;;;0.75;;
40373;SDS011;26079;45.958;12.492;2022-08-19T11:28:42;4.00;;;1.02;;
40373;SDS011;26079;45.958;12.492;2022-08-19T11:31:09;3.03;;;0.85;;
40373;SDS011;26079;45.958;12.492;2022-08-19T11:33:36;2.15;;;1.08;;
40373;SDS011;26079;45.958;12.492;2022-08-19T11:36:02;3.53;;;1.23;;
40373;SDS011;26079;45.958;12.492;2022-08-19T11:38:28;2.15;;;1.05;;
40373;SDS011;26079;45.958;12.492;2022-08-19T11:41:00;1.58;;;0.88;;
40373;SDS011;26079;45.958;12.492;2022-08-19T11:43:27;4.78;;;1.27;;
40373;SDS011;26079;45.958;12.492;2022-08-19T11:45:54;5.50;;;1.35;;
40373;SDS011;26079;45.958;12.492;2022-08-19T11:48:20;2.28;;;1.15;;
40373;SDS011;26079;45.958;12.492;2022-08-19T11:50:47;3.58;;;0.98;;
40373;SDS011;26079;45.958;12.492;2022-08-19T11:53:14;3.28;;;1.33;;
40373;SDS011;26079;45.958;12.492;2022-08-19T11:55:41;1.83;;;0.80;;
40373;SDS011;26079;45.958;12.492;2022-08-19T11:58:07;2.83;;;1.10;;
40373;SDS011;26079;45.958;12.492;2022-08-19T12:00:34;3.10;;;1.05;;
40373;SDS011;26079;45.958;12.492;2022-08-19T12:03:01;2.90;;;1.08;;
40373;SDS011;26079;45.958;12.492;2022-08-19T12:05:27;6.22;;;1.33;;
40373;SDS011;26079;45.958;12.492;2022-08-19T12:07:53;4.10;;;1.13;;
40373;SDS011;26079;45.958;12.492;2022-08-19T12:10:20;8.70;;;1.90;;
40373;SDS011;26079;45.958;12.492;2022-08-19T12:12:46;6.25;;;1.08;;
40373;SDS011;26079;45.958;12.492;2022-08-19T12:15:12;4.03;;;1.20;;
40373;SDS011;26079;45.958;12.492;2022-08-19T12:17:42;5.72;;;1.13;;
40373;SDS011;26079;45.958;12.492;2022-08-19T12:20:12;1.80;;;1.00;;
40373;SDS011;26079;45.958;12.492;2022-08-19T12:22:40;12.15;;;2.90;;
40373;SDS011;26079;45.958;12.492;2022-08-19T12:25:10;9.52;;;2.58;;
40373;SDS011;26079;45.958;12.492;2022-08-19T12:27:37;6.63;;;2.22;;
40373;SDS011;26079;45.958;12.492;2022-08-19T12:30:04;12.93;;;2.28;;
40373;SDS011;26079;45.958;12.492;2022-08-19T12:32:35;15.15;;;2.80;;
40373;SDS011;26079;45.958;12.492;2022-08-19T12:35:05;5.78;;;1.48;;
40373;SDS011;26079;45.958;12.492;2022-08-19T12:37:34;9.23;;;2.47;;
40373;SDS011;26079;45.958;12.492;2022-08-19T12:39:59;10.98;;;2.13;;
40373;SDS011;26079;45.958;12.492;2022-08-19T12:42:25;10.27;;;2.50;;
40373;SDS011;26079;45.958;12.492;2022-08-19T12:44:51;6.53;;;1.70;;
40373;SDS011;26079;45.958;12.492;2022-08-19T12:47:18;9.13;;;1.65;;
40373;SDS011;26079;45.958;12.492;2022-08-19T12:49:43;13.75;;;3.13;;
40373;SDS011;26079;45.958;12.492;2022-08-19T12:52:11;8.38;;;2.75;;
40373;SDS011;26079;45.958;12.492;2022-08-19T12:54:40;5.45;;;1.50;;
40373;SDS011;26079;45.958;12.492;2022-08-19T12:57:07;9.77;;;2.22;;
40373;SDS011;26079;45.958;12.492;2022-08-19T12:59:38;10.93;;;2.60;;
40373;SDS011;26079;45.958;12.492;2022-08-19T13:02:05;8.65;;;2.33;;
40373;SDS011;26079;45.958;12.492;2022-08-19T13:04:33;7.45;;;2.55;;
40373;SDS011;26079;45.958;12.492;2022-08-19T13:07:01;11.18;;;1.95;;
40373;SDS011;26079;45.958;12.492;2022-08-19T13:09:28;5.80;;;1.98;;
40373;SDS011;26079;45.958;12.492;2022-08-19T13:11:54;9.10;;;2.50;;
40373;SDS011;26079;45.958;12.492;2022-08-19T13:14:21;13.77;;;2.08;;
40373;SDS011;26079;45.958;12.492;2022-08-19T13:16:47;11.52;;;2.67;;
40373;SDS011;26079;45.958;12.492;2022-08-19T13:19:16;10.20;;;2.10;;
40373;SDS011;26079;45.958;12.492;2022-08-19T13:21:45;13.73;;;2.95;;
40373;SDS011;26079;45.958;12.492;2022-08-19T13:24:15;16.40;;;2.83;;
40373;SDS011;26079;45.958;12.492;2022-08-19T13:26:41;8.82;;;2.38;;
40373;SDS011;26079;45.958;12.492;2022-08-19T13:29:06;6.07;;;2.53;;
40373;SDS011;26079;45.958;12.492;2022-08-19T13:31:50;11.10;;;1.95;;
40373;SDS011;26079;45.958;12.492;2022-08-19T13:34:35;10.52;;;2.53;;
40373;SDS011;26079;45.958;12.492;2022-08-19T13:37:02;9.43;;;2.30;;
40373;SDS011;26079;45.958;12.492;2022-08-19T13:39:31;12.45;;;2.60;;
40373;SDS011;26079;45.958;12.492;2022-08-19T13:41:59;9.65;;;2.75;;
40373;SDS011;26079;45.958;12.492;2022-08-19T13:44:25;7.63;;;2.08;;
40373;SDS011;26079;45.958;12.492;2022-08-19T13:46:54;9.23;;;2.05;;
40373;SDS011;26079;45.958;12.492;2022-08-19T13:49:31;11.45;;;2.25;;
40373;SDS011;26079;45.958;12.492;2022-08-19T13:51:57;5.88;;;2.70;;
40373;SDS011;26079;45.958;12.492;2022-08-19T13:54:23;8.32;;;2.63;;
40373;SDS011;26079;45.958;12.492;2022-08-19T13:56:55;7.53;;;2.63;;
40373;SDS011;26079;45.958;12.492;2022-08-19T13:59:21;9.35;;;3.40;;
40373;SDS011;26079;45.958;12.492;2022-08-19T14:01:46;8.18;;;2.47;;
40373;SDS011;26079;45.958;12.492;2022-08-19T14:04:12;17.73;;;3.83;;
40373;SDS011;26079;45.958;12.492;2022-08-19T14:06:38;6.82;;;2.50;;
40373;SDS011;26079;45.958;12.492;2022-08-19T14:09:03;7.72;;;2.15;;
40373;SDS011;26079;45.958;12.492;2022-08-19T14:11:32;5.47;;;2.13;;
40373;SDS011;26079;45.958;12.492;2022-08-19T14:13:58;10.77;;;2.78;;
40373;SDS011;26079;45.958;12.492;2022-08-19T14:16:24;8.45;;;2.83;;
40373;SDS011;26079;45.958;12.492;2022-08-19T14:18:50;8.98;;;3.05;;
40373;SDS011;26079;45.958;12.492;2022-08-19T14:21:17;13.82;;;3.10;;
40373;SDS011;26079;45.958;12.492;2022-08-19T14:26:18;5.20;;;1.98;;
40373;SDS011;26079;45.958;12.492;2022-08-19T14:28:47;10.30;;;1.98;;
40373;SDS011;26079;45.958;12.492;2022-08-19T14:31:13;10.55;;;2.40;;
40373;SDS011;26079;45.958;12.492;2022-08-19T14:33:43;11.45;;;2.40;;
40373;SDS011;26079;45.958;12.492;2022-08-19T14:36:13;10.27;;;1.85;;
40373;SDS011;26079;45.958;12.492;2022-08-19T14:38:39;7.72;;;2.40;;
40373;SDS011;26079;45.958;12.492;2022-08-19T14:41:12;8.48;;;2.00;;
40373;SDS011;26079;45.958;12.492;2022-08-19T14:43:45;17.17;;;3.05;;
40373;SDS011;26079;45.958;12.492;2022-08-19T14:46:12;7.32;;;2.58;;
40373;SDS011;26079;45.958;12.492;2022-08-19T14:48:44;5.55;;;2.03;;
40373;SDS011;26079;45.958;12.492;2022-08-19T14:51:10;9.85;;;2.13;;
40373;SDS011;26079;45.958;12.492;2022-08-19T14:53:37;4.60;;;1.60;;
40373;SDS011;26079;45.958;12.492;2022-08-19T14:56:09;4.07;;;2.20;;
40373;SDS011;26079;45.958;12.492;2022-08-19T14:58:37;5.78;;;1.67;;
40373;SDS011;26079;45.958;12.492;2022-08-19T15:01:08;11.65;;;2.03;;